createdAt,value
2018-04-27T00:00:08.200Z,5.65
2018-04-27T00:01:08.188Z,5.54
2018-04-27T00:02:08.176Z,5.56
2018-04-27T00:03:08.172Z,5.56
2018-04-27T00:04:08.195Z,5.54
2018-04-27T00:05:08.161Z,5.54
2018-04-27T00:06:08.125Z,5.56
2018-04-27T00:07:08.132Z,5.57
2018-04-27T00:08:08.100Z,5.61
2018-04-27T00:09:08.095Z,5.65
2018-04-27T00:10:08.118Z,5.64
2018-04-27T00:11:08.070Z,5.68
2018-04-27T00:12:08.052Z,5.64
2018-04-27T00:13:08.041Z,5.59
2018-04-27T00:14:08.024Z,5.64
2018-04-27T00:15:08.012Z,5.59
2018-04-27T00:16:08.000Z,5.56
2018-04-27T00:17:07.986Z,5.56
2018-04-27T00:18:07.973Z,5.53
2018-04-27T00:19:07.964Z,5.54
2018-04-27T00:20:07.961Z,5.64
2018-04-27T00:21:07.981Z,5.66
2018-04-27T00:22:07.933Z,5.68
2018-04-27T00:23:07.910Z,5.56
2018-04-27T00:24:07.909Z,5.62
2018-04-27T00:25:07.888Z,5.62
2018-04-27T00:26:07.874Z,5.69
2018-04-27T00:27:07.893Z,5.64
2018-04-27T00:28:07.849Z,5.61
2018-04-27T00:29:07.834Z,5.54
2018-04-27T00:30:07.824Z,5.54
2018-04-27T00:31:07.808Z,5.54
2018-04-27T00:32:07.795Z,5.46
2018-04-27T00:33:07.784Z,5.50
2018-04-27T00:34:07.770Z,5.47
2018-04-27T00:35:07.757Z,5.50
2018-04-27T00:36:07.745Z,5.41
2018-04-27T00:37:07.750Z,5.54
2018-04-27T00:38:07.779Z,5.47
2018-04-27T00:39:07.729Z,5.46
2018-04-27T00:40:07.696Z,5.50
2018-04-27T00:41:07.712Z,5.51
2018-04-27T00:42:07.669Z,5.71
2018-04-27T00:43:07.666Z,5.66
2018-04-27T00:44:07.877Z,5.69
2018-04-27T00:45:07.641Z,5.62
2018-04-27T00:46:07.618Z,5.76
2018-04-27T00:47:07.625Z,5.75
2018-04-27T00:48:07.594Z,5.72
2018-04-27T00:49:07.581Z,5.65
2018-04-27T00:50:07.568Z,5.61
2018-04-27T00:51:07.555Z,5.62
2018-04-27T00:52:07.542Z,5.61
2018-04-27T00:53:07.531Z,5.54
2018-04-27T00:54:07.544Z,5.59
2018-04-27T00:55:07.503Z,5.53
2018-04-27T00:56:07.516Z,5.59
2018-04-27T00:57:07.479Z,5.57
2018-04-27T00:58:07.465Z,5.57
2018-04-27T00:59:07.453Z,5.56
2018-04-27T01:00:07.461Z,5.57
2018-04-27T01:01:07.428Z,5.54
2018-04-27T01:02:07.436Z,5.56
2018-04-27T01:03:07.405Z,5.56
2018-04-27T01:04:07.390Z,5.54
2018-04-27T01:05:07.378Z,5.57
2018-04-27T01:06:07.364Z,5.66
2018-04-27T01:07:07.352Z,5.66
2018-04-27T01:08:07.339Z,5.73
2018-04-27T01:09:07.327Z,5.61
2018-04-27T01:10:07.313Z,5.71
2018-04-27T01:11:07.341Z,5.71
2018-04-27T01:12:07.289Z,5.69
2018-04-27T01:13:07.319Z,5.72
2018-04-27T01:14:07.268Z,5.62
2018-04-27T01:15:07.251Z,5.71
2018-04-27T01:16:07.244Z,5.66
2018-04-27T01:17:07.241Z,5.59
2018-04-27T01:18:07.213Z,5.68
2018-04-27T01:19:07.213Z,5.68
2018-04-27T01:20:07.194Z,5.57
2018-04-27T01:21:07.175Z,5.65
2018-04-27T01:22:07.162Z,5.61
2018-04-27T01:23:07.150Z,5.56
2018-04-27T01:24:07.137Z,5.59
2018-04-27T01:25:07.125Z,5.56
2018-04-27T01:26:07.116Z,5.62
2018-04-27T01:27:07.098Z,5.53
2018-04-27T01:28:07.119Z,5.54
2018-04-27T01:29:07.073Z,5.43
2018-04-27T01:30:07.099Z,5.46
2018-04-27T01:31:07.046Z,5.47
2018-04-27T01:32:07.037Z,5.59
2018-04-27T01:34:07.038Z,5.46
2018-04-27T01:35:06.995Z,5.44
2018-04-27T01:36:07.015Z,5.41
2018-04-27T01:37:06.969Z,5.43
2018-04-27T01:38:06.957Z,5.38
2018-04-27T01:39:06.944Z,5.36
2018-04-27T01:40:06.931Z,5.36
2018-04-27T01:41:06.919Z,5.43
2018-04-27T01:42:06.905Z,5.35
2018-04-27T01:43:06.895Z,5.32
2018-04-27T01:44:06.890Z,5.33
2018-04-27T01:45:06.908Z,5.35
2018-04-27T01:46:06.864Z,5.43
2018-04-27T01:47:06.842Z,5.46
2018-04-27T01:48:06.843Z,5.46
2018-04-27T01:49:06.826Z,5.50
2018-04-27T01:50:06.803Z,5.46
2018-04-27T01:51:06.825Z,5.59
2018-04-27T01:52:06.781Z,5.50
2018-04-27T01:53:06.765Z,5.59
2018-04-27T01:54:06.752Z,5.56
2018-04-27T01:55:06.740Z,5.56
2018-04-27T01:56:06.727Z,5.48
2018-04-27T01:57:06.715Z,5.53
2018-04-27T01:58:06.707Z,5.53
2018-04-27T01:59:06.690Z,5.59
2018-04-27T02:00:06.676Z,5.56
2018-04-27T02:01:06.663Z,5.56
2018-04-27T02:02:06.879Z,5.50
2018-04-27T02:03:06.660Z,5.53
2018-04-27T02:04:06.628Z,5.46
2018-04-27T02:05:06.640Z,5.44
2018-04-27T02:06:06.598Z,5.46
2018-04-27T02:07:06.596Z,5.36
2018-04-27T02:08:06.626Z,5.36
2018-04-27T02:09:06.570Z,5.38
2018-04-27T02:10:06.546Z,5.30
2018-04-27T02:11:06.551Z,5.32
2018-04-27T02:12:06.521Z,5.33
2018-04-27T02:13:06.509Z,5.46
2018-04-27T02:14:06.495Z,5.54
2018-04-27T02:15:06.482Z,5.61
2018-04-27T02:16:06.470Z,5.56
2018-04-27T02:17:06.470Z,5.61
2018-04-27T02:18:06.489Z,5.64
2018-04-27T02:19:06.451Z,5.68
2018-04-27T02:20:06.422Z,5.68
2018-04-27T02:21:06.419Z,5.69
2018-04-27T02:22:06.392Z,5.54
2018-04-27T02:23:06.389Z,5.65
2018-04-27T02:24:06.408Z,5.56
2018-04-27T02:25:06.363Z,5.47
2018-04-27T02:26:06.341Z,5.46
2018-04-27T02:27:06.337Z,5.46
2018-04-27T02:28:06.316Z,5.59
2018-04-27T02:29:06.303Z,5.62
2018-04-27T02:30:06.291Z,5.62
2018-04-27T02:31:06.277Z,5.54
2018-04-27T02:32:06.267Z,5.51
2018-04-27T02:33:06.253Z,5.57
2018-04-27T02:34:06.259Z,5.54
2018-04-27T02:35:06.263Z,5.56
2018-04-27T02:36:06.241Z,5.61
2018-04-27T02:37:06.201Z,5.56
2018-04-27T02:38:06.225Z,5.51
2018-04-27T02:39:06.177Z,5.44
2018-04-27T02:40:06.183Z,5.47
2018-04-27T02:41:06.189Z,5.44
2018-04-27T02:42:06.153Z,5.47
2018-04-27T02:43:06.123Z,5.61
2018-04-27T02:44:06.134Z,5.53
2018-04-27T02:45:06.099Z,5.59
2018-04-27T02:46:06.086Z,5.48
2018-04-27T02:47:06.072Z,5.59
2018-04-27T02:48:06.079Z,5.46
2018-04-27T02:49:06.050Z,5.48
2018-04-27T02:50:06.034Z,5.54
2018-04-27T02:51:06.052Z,5.57
2018-04-27T02:52:06.012Z,5.47
2018-04-27T02:53:06.028Z,5.56
2018-04-27T02:54:05.984Z,5.59
2018-04-27T02:55:05.971Z,5.57
2018-04-27T02:56:05.964Z,5.48
2018-04-27T02:57:05.973Z,5.51
2018-04-27T02:58:05.935Z,5.47
2018-04-27T02:59:05.950Z,5.38
2018-04-27T03:00:05.909Z,5.38
2018-04-27T03:01:05.895Z,5.32
2018-04-27T03:02:05.881Z,5.46
2018-04-27T03:03:05.869Z,5.43
2018-04-27T03:04:05.856Z,5.47
2018-04-27T03:05:05.844Z,5.41
2018-04-27T03:06:05.833Z,5.43
2018-04-27T03:07:05.818Z,5.50
2018-04-27T03:08:05.845Z,5.46
2018-04-27T03:09:05.803Z,5.35
2018-04-27T03:10:06.009Z,5.35
2018-04-27T03:11:05.778Z,5.43
2018-04-27T03:12:05.753Z,5.41
2018-04-27T03:13:05.792Z,5.38
2018-04-27T03:14:05.727Z,5.36
2018-04-27T03:15:05.714Z,5.48
2018-04-27T03:16:05.746Z,5.61
2018-04-27T03:17:05.696Z,5.57
2018-04-27T03:18:05.676Z,5.62
2018-04-27T03:19:05.677Z,5.59
2018-04-27T03:20:05.650Z,5.59
2018-04-27T03:21:05.640Z,5.59
2018-04-27T03:22:05.624Z,5.57
2018-04-27T03:23:05.614Z,5.53
2018-04-27T03:24:05.612Z,5.56
2018-04-27T03:25:05.632Z,5.56
2018-04-27T03:26:05.596Z,5.56
2018-04-27T03:27:05.561Z,5.56
2018-04-27T03:28:05.568Z,5.46
2018-04-27T03:29:05.535Z,5.47
2018-04-27T03:30:05.537Z,5.48
2018-04-27T03:31:05.561Z,5.47
2018-04-27T03:32:05.512Z,5.53
2018-04-27T03:33:05.484Z,5.51
2018-04-27T03:34:05.486Z,5.56
2018-04-27T03:35:05.458Z,5.57
2018-04-27T03:36:05.446Z,5.57
2018-04-27T03:37:05.433Z,5.57
2018-04-27T03:38:05.420Z,5.62
2018-04-27T03:39:05.410Z,5.57
2018-04-27T03:40:05.398Z,5.48
2018-04-27T03:41:05.381Z,5.50
2018-04-27T03:42:05.367Z,5.41
2018-04-27T03:43:05.399Z,5.41
2018-04-27T03:44:05.349Z,5.41
2018-04-27T03:45:05.379Z,5.46
2018-04-27T03:46:05.315Z,5.43
2018-04-27T03:47:05.311Z,5.43
2018-04-27T03:48:05.289Z,5.44
2018-04-27T03:49:05.480Z,5.38
2018-04-27T03:50:05.263Z,5.36
2018-04-27T03:51:05.259Z,5.39
2018-04-27T03:52:05.238Z,5.41
2018-04-27T03:53:05.225Z,5.26
2018-04-27T03:54:05.211Z,5.30
2018-04-27T03:55:05.203Z,5.28
2018-04-27T03:56:05.189Z,5.25
2018-04-27T03:57:05.200Z,5.28
2018-04-27T03:58:05.160Z,5.26
2018-04-27T03:59:05.161Z,5.23
2018-04-27T04:00:05.135Z,5.28
2018-04-27T04:01:05.150Z,5.25
2018-04-27T04:02:05.109Z,5.26
2018-04-27T04:03:05.099Z,5.28
2018-04-27T04:04:05.083Z,5.26
2018-04-27T04:05:05.071Z,5.25
2018-04-27T04:06:05.083Z,5.21
2018-04-27T04:07:05.122Z,5.18
2018-04-27T04:08:05.067Z,5.17
2018-04-27T04:09:05.019Z,5.18
2018-04-27T04:10:05.231Z,5.12
2018-04-27T04:11:05.043Z,5.17
2018-04-27T04:12:04.994Z,5.28
2018-04-27T04:13:05.217Z,5.29
2018-04-27T04:14:04.953Z,5.32
2018-04-27T04:15:05.084Z,5.25
2018-04-27T04:16:04.927Z,5.33
2018-04-27T04:17:04.920Z,5.36
2018-04-27T04:18:04.944Z,5.41
2018-04-27T04:19:04.889Z,5.36
2018-04-27T04:20:04.964Z,5.43
2018-04-27T04:21:04.863Z,5.46
2018-04-27T04:22:04.849Z,5.46
2018-04-27T04:23:04.842Z,5.51
2018-04-27T04:24:04.823Z,5.46
2018-04-27T04:25:04.811Z,5.57
2018-04-27T04:26:04.811Z,5.59
2018-04-27T04:27:04.792Z,5.62
2018-04-27T04:28:04.775Z,5.61
2018-04-27T04:29:04.764Z,5.69
2018-04-27T04:30:04.745Z,5.64
2018-04-27T04:31:04.736Z,5.65
2018-04-27T04:32:04.720Z,5.75
2018-04-27T04:33:04.708Z,5.80
2018-04-27T04:34:04.698Z,5.73
2018-04-27T04:35:04.680Z,5.79
2018-04-27T04:36:04.669Z,5.76
2018-04-27T04:37:04.688Z,5.79
2018-04-27T04:38:04.641Z,5.83
2018-04-27T04:39:04.636Z,5.91
2018-04-27T04:40:04.616Z,5.79
2018-04-27T04:41:04.603Z,5.84
2018-04-27T04:42:04.655Z,5.91
2018-04-27T04:43:04.588Z,5.94
2018-04-27T04:44:04.565Z,5.98
2018-04-27T04:45:04.641Z,5.99
2018-04-27T04:46:04.537Z,5.94
2018-04-27T04:47:04.527Z,5.90
2018-04-27T04:48:04.513Z,6.04
2018-04-27T04:49:04.573Z,6.02
2018-04-27T04:50:04.511Z,6.02
2018-04-27T04:51:04.486Z,6.02
2018-04-27T04:52:04.461Z,6.01
2018-04-27T04:53:04.453Z,6.11
2018-04-27T04:54:04.436Z,6.09
2018-04-27T04:55:04.482Z,6.16
2018-04-27T04:56:04.433Z,6.17
2018-04-27T04:57:04.397Z,6.22
2018-04-27T04:58:04.384Z,6.28
2018-04-27T04:59:04.372Z,6.38
2018-04-27T05:00:04.359Z,6.41
2018-04-27T05:01:04.347Z,6.38
2018-04-27T05:02:04.352Z,6.41
2018-04-27T05:03:04.393Z,6.45
2018-04-27T05:04:04.309Z,6.49
2018-04-27T05:05:04.298Z,6.54
2018-04-27T05:06:04.288Z,6.52
2018-04-27T05:07:04.325Z,6.56
2018-04-27T05:08:04.272Z,6.62
2018-04-27T05:09:04.249Z,6.67
2018-04-27T05:10:04.235Z,6.62
2018-04-27T05:11:04.223Z,6.64
2018-04-27T05:12:04.237Z,6.67
2018-04-27T05:13:04.257Z,6.67
2018-04-27T05:14:04.187Z,6.70
2018-04-27T05:15:04.175Z,6.70
2018-04-27T05:16:04.169Z,6.64
2018-04-27T05:17:04.166Z,6.81
2018-04-27T05:18:04.142Z,6.70
2018-04-27T05:19:04.130Z,6.75
2018-04-27T05:20:04.115Z,6.74
2018-04-27T05:21:04.105Z,6.77
2018-04-27T05:22:04.293Z,6.77
2018-04-27T05:23:04.079Z,6.81
2018-04-27T05:24:04.071Z,6.87
2018-04-27T05:25:04.055Z,6.82
2018-04-27T05:26:04.042Z,6.87
2018-04-27T05:28:04.040Z,6.82
2018-04-27T05:29:04.012Z,6.89
2018-04-27T05:30:03.995Z,6.99
2018-04-27T05:31:04.016Z,7.00
2018-04-27T05:32:04.174Z,7.00
2018-04-27T05:33:03.989Z,7.00
2018-04-27T05:34:03.950Z,7.13
2018-04-27T05:35:03.935Z,7.24
2018-04-27T05:36:03.924Z,7.21
2018-04-27T05:37:03.913Z,7.24
2018-04-27T05:38:03.902Z,7.31
2018-04-27T05:39:03.888Z,7.23
2018-04-27T05:40:04.081Z,7.29
2018-04-27T05:41:03.870Z,7.25
2018-04-27T05:42:04.063Z,7.40
2018-04-27T05:44:03.875Z,7.48
2018-04-27T05:45:03.822Z,7.54
2018-04-27T05:46:03.809Z,7.51
2018-04-27T05:47:03.798Z,7.70
2018-04-27T05:48:03.786Z,7.61
2018-04-27T05:49:03.845Z,7.72
2018-04-27T05:50:03.772Z,7.72
2018-04-27T05:51:03.753Z,7.75
2018-04-27T05:52:03.742Z,7.80
2018-04-27T05:53:03.731Z,7.79
2018-04-27T05:54:03.719Z,7.87
2018-04-27T05:55:03.708Z,7.93
2018-04-27T05:56:03.904Z,7.97
2018-04-27T05:57:03.699Z,8.00
2018-04-27T05:58:03.676Z,7.98
2018-04-27T05:59:03.670Z,8.16
2018-04-27T06:00:03.656Z,8.19
2018-04-27T06:01:03.647Z,8.31
2018-04-27T06:02:03.643Z,8.26
2018-04-27T06:03:03.621Z,8.37
2018-04-27T06:04:03.623Z,8.51
2018-04-27T06:05:03.609Z,8.48
2018-04-27T06:06:03.590Z,8.55
2018-04-27T06:07:03.580Z,8.69
2018-04-27T06:08:03.570Z,8.87
2018-04-27T06:09:03.764Z,8.92
2018-04-27T06:10:03.642Z,9.00
2018-04-27T06:11:03.565Z,9.02
2018-04-27T06:12:03.531Z,9.08
2018-04-27T06:13:03.517Z,9.06
2018-04-27T06:14:03.510Z,9.13
2018-04-27T06:15:03.527Z,9.18
2018-04-27T06:16:03.566Z,9.22
2018-04-27T06:17:03.475Z,9.22
2018-04-27T06:18:03.469Z,9.28
2018-04-27T06:19:03.497Z,9.39
2018-04-27T06:20:03.444Z,9.40
2018-04-27T06:21:03.435Z,9.40
2018-04-27T06:22:03.430Z,9.46
2018-04-27T06:23:03.443Z,9.50
2018-04-27T06:24:03.406Z,9.56
2018-04-27T06:25:03.395Z,9.64
2018-04-27T06:26:03.388Z,9.74
2018-04-27T06:27:03.375Z,9.79
2018-04-27T06:28:03.450Z,9.86
2018-04-27T06:29:03.373Z,9.79
2018-04-27T06:30:03.346Z,9.84
2018-04-27T06:31:03.336Z,9.92
2018-04-27T06:32:03.329Z,9.91
2018-04-27T06:33:03.402Z,9.89
2018-04-27T06:34:03.312Z,9.97
2018-04-27T06:35:03.300Z,10.02
2018-04-27T06:36:03.291Z,10.12
2018-04-27T06:37:03.280Z,10.15
2018-04-27T06:38:03.339Z,10.17
2018-04-27T06:39:03.268Z,10.38
2018-04-27T06:40:03.252Z,10.41
2018-04-27T06:41:03.243Z,10.48
2018-04-27T06:42:03.473Z,10.63
2018-04-27T06:43:03.229Z,10.67
2018-04-27T06:44:03.216Z,10.64
2018-04-27T06:45:03.207Z,10.69
2018-04-27T06:46:03.199Z,10.69
2018-04-27T06:47:03.244Z,10.71
2018-04-27T06:48:03.219Z,10.81
2018-04-27T06:49:03.176Z,10.82
2018-04-27T06:50:03.163Z,10.82
2018-04-27T06:51:03.162Z,10.92
2018-04-27T06:52:03.360Z,11.08
2018-04-27T06:53:03.185Z,11.15
2018-04-27T06:54:03.129Z,11.15
2018-04-27T06:55:03.125Z,11.22
2018-04-27T06:56:03.114Z,11.29
2018-04-27T06:57:03.206Z,11.29
2018-04-27T06:58:03.097Z,11.35
2018-04-27T06:59:03.103Z,11.26
2018-04-27T07:00:03.142Z,11.29
2018-04-27T07:01:03.077Z,11.41
2018-04-27T07:02:03.279Z,11.44
2018-04-27T07:03:03.106Z,11.52
2018-04-27T07:04:03.133Z,11.59
2018-04-27T07:05:03.051Z,11.50
2018-04-27T07:06:03.033Z,11.44
2018-04-27T07:07:03.034Z,11.36
2018-04-27T07:08:03.019Z,11.40
2018-04-27T07:09:03.020Z,11.41
2018-04-27T07:10:03.111Z,11.36
2018-04-27T07:11:03.068Z,11.52
2018-04-27T07:12:03.075Z,11.54
2018-04-27T07:13:03.948Z,11.65
2018-04-27T07:14:03.097Z,11.77
2018-04-27T07:16:03.049Z,11.95
2018-04-27T07:17:03.143Z,12.18
2018-04-27T07:18:02.948Z,12.28
2018-04-27T07:19:02.971Z,12.53
2018-04-27T07:20:03.694Z,12.65
2018-04-27T07:21:02.981Z,12.73
2018-04-27T07:22:02.975Z,12.76
2018-04-27T07:23:02.997Z,12.91
2018-04-27T07:24:02.979Z,12.83
2018-04-27T07:25:03.229Z,13.03
2018-04-27T07:27:03.007Z,13.16
2018-04-27T07:28:02.948Z,13.27
2018-04-27T07:29:02.981Z,13.22
2018-04-27T07:31:02.967Z,13.33
2018-04-27T07:32:02.974Z,13.38
2018-04-27T07:34:02.952Z,13.62
2018-04-27T07:35:02.947Z,13.54
2018-04-27T07:36:02.971Z,13.47
2018-04-27T07:37:02.968Z,13.70
2018-04-27T07:38:02.910Z,13.92
2018-04-27T07:39:02.923Z,14.11
2018-04-27T07:40:02.952Z,14.25
2018-04-27T07:41:03.154Z,14.30
2018-04-27T07:42:02.940Z,14.26
2018-04-27T07:43:02.885Z,14.23
2018-04-27T07:44:02.912Z,14.26
2018-04-27T07:45:02.893Z,14.29
2018-04-27T07:46:02.952Z,14.28
2018-04-27T07:47:03.101Z,14.33
2018-04-27T07:48:02.900Z,14.45
2018-04-27T07:49:02.950Z,14.40
2018-04-27T07:52:03.520Z,14.23
2018-04-27T07:53:02.891Z,14.47
2018-04-27T07:54:02.958Z,14.48
2018-04-27T07:55:02.930Z,14.65
2018-04-27T07:56:02.993Z,14.65
2018-04-27T07:57:02.884Z,14.69
2018-04-27T08:00:02.898Z,15.06
2018-04-27T08:01:02.930Z,14.99
2018-04-27T08:02:03.137Z,15.09
2018-04-27T08:03:02.902Z,15.15
2018-04-27T08:04:02.904Z,15.33
2018-04-27T08:05:02.929Z,15.37
2018-04-27T08:06:02.930Z,15.35
2018-04-27T08:07:02.958Z,15.57
2018-04-27T08:08:02.917Z,15.62
2018-04-27T08:09:02.877Z,15.57
2018-04-27T08:10:03.138Z,15.49
2018-04-27T08:11:02.936Z,15.59
2018-04-27T08:12:02.990Z,15.59
2018-04-27T08:13:02.942Z,15.62
2018-04-27T08:14:02.944Z,15.82
2018-04-27T08:15:02.938Z,16.12
2018-04-27T08:16:03.215Z,16.36
2018-04-27T08:17:02.915Z,16.69
2018-04-27T08:18:03.097Z,16.93
2018-04-27T08:20:02.899Z,17.31
2018-04-27T08:21:02.906Z,17.27
2018-04-27T08:22:02.949Z,17.24
2018-04-27T08:23:02.918Z,17.14
2018-04-27T08:24:03.140Z,17.16
2018-04-27T08:25:02.991Z,17.19
2018-04-27T08:26:02.948Z,17.30
2018-04-27T08:27:03.180Z,17.23
2018-04-27T08:28:02.960Z,17.29
2018-04-27T08:29:02.963Z,17.36
2018-04-27T08:30:02.949Z,17.42
2018-04-27T08:31:02.984Z,17.38
2018-04-27T08:32:02.949Z,17.39
2018-04-27T08:33:02.960Z,17.59
2018-04-27T08:34:03.173Z,17.48
2018-04-27T08:35:03.228Z,17.46
2018-04-27T08:36:02.978Z,17.44
2018-04-27T08:37:02.932Z,17.60
2018-04-27T08:38:03.011Z,17.72
2018-04-27T08:39:02.979Z,17.92
2018-04-27T08:40:03.207Z,17.83
2018-04-27T08:41:03.000Z,17.70
2018-04-27T08:42:02.990Z,17.72
2018-04-27T08:44:02.925Z,17.80
2018-04-27T08:45:03.020Z,17.67
2018-04-27T08:46:03.062Z,17.36
2018-04-27T08:47:03.013Z,17.48
2018-04-27T08:48:03.033Z,17.45
2018-04-27T08:50:03.027Z,17.33
2018-04-27T08:51:03.045Z,17.27
2018-04-27T08:52:03.042Z,17.08
2018-04-27T08:53:03.064Z,16.93
2018-04-27T08:54:03.006Z,16.93
2018-04-27T08:55:03.065Z,17.08
2018-04-27T08:56:02.986Z,16.87
2018-04-27T08:57:03.242Z,16.91
2018-04-27T08:58:03.037Z,16.96
2018-04-27T08:59:03.052Z,17.16
2018-04-27T09:01:03.088Z,17.15
2018-04-27T09:02:03.048Z,17.46
2018-04-27T09:04:03.040Z,17.80
2018-04-27T09:05:03.047Z,17.97
2018-04-27T09:06:03.059Z,18.07
2018-04-27T09:07:03.062Z,18.05
2018-04-27T09:08:03.052Z,18.05
2018-04-27T09:09:03.223Z,17.92
2018-04-27T09:10:03.244Z,17.89
2018-04-27T09:11:03.149Z,17.68
2018-04-27T09:12:03.083Z,17.68
2018-04-27T09:13:03.091Z,17.67
2018-04-27T09:14:03.050Z,17.68
2018-04-27T09:15:03.248Z,17.42
2018-04-27T09:16:03.041Z,17.41
2018-04-27T09:17:03.263Z,17.65
2018-04-27T09:18:03.097Z,17.78
2018-04-27T09:20:03.125Z,17.97
2018-04-27T09:21:03.030Z,18.01
2018-04-27T09:22:03.077Z,17.97
2018-04-27T09:23:03.135Z,17.89
2018-04-27T09:24:03.095Z,17.94
2018-04-27T09:25:03.092Z,17.94
2018-04-27T09:26:03.072Z,17.98
2018-04-27T09:27:03.129Z,17.82
2018-04-27T09:28:03.121Z,17.74
2018-04-27T09:29:03.152Z,18.03
2018-04-27T09:30:03.149Z,18.29
2018-04-27T09:31:03.167Z,18.58
2018-04-27T09:32:03.130Z,18.78
2018-04-27T09:33:03.125Z,18.66
2018-04-27T09:34:03.145Z,18.56
2018-04-27T09:35:03.105Z,18.55
2018-04-27T09:36:03.122Z,18.40
2018-04-27T09:37:03.107Z,18.35
2018-04-27T09:38:03.081Z,18.31
2018-04-27T09:39:03.150Z,18.22
2018-04-27T09:40:03.133Z,18.19
2018-04-27T09:41:03.166Z,18.28
2018-04-27T09:42:03.272Z,18.47
2018-04-27T09:43:03.150Z,18.56
2018-04-27T09:44:03.083Z,18.60
2018-04-27T09:45:03.151Z,18.55
2018-04-27T09:46:03.224Z,18.60
2018-04-27T09:47:03.370Z,18.70
2018-04-27T09:48:03.146Z,18.80
2018-04-27T09:49:03.187Z,19.18
2018-04-27T09:50:03.125Z,19.31
2018-04-27T09:51:03.167Z,19.29
2018-04-27T09:52:03.161Z,19.22
2018-04-27T09:53:03.171Z,19.36
2018-04-27T09:55:03.149Z,19.48
2018-04-27T09:57:03.182Z,19.56
2018-04-27T09:58:03.228Z,19.51
2018-04-27T09:59:03.167Z,19.37
2018-04-27T10:00:03.218Z,19.19
2018-04-27T10:01:03.241Z,19.19
2018-04-27T10:02:03.236Z,19.00
2018-04-27T10:03:03.187Z,18.83
2018-04-27T10:04:03.238Z,18.88
2018-04-27T10:05:03.225Z,18.77
2018-04-27T10:06:03.233Z,18.60
2018-04-27T10:07:03.242Z,18.49
2018-04-27T10:08:03.213Z,18.38
2018-04-27T10:09:03.333Z,18.52
2018-04-27T10:10:03.217Z,18.78
2018-04-27T10:11:03.267Z,18.80
2018-04-27T10:13:03.454Z,18.92
2018-04-27T10:14:03.257Z,19.08
2018-04-27T10:15:03.596Z,19.12
2018-04-27T10:16:03.269Z,18.98
2018-04-27T10:17:03.264Z,18.86
2018-04-27T10:18:03.467Z,18.52
2018-04-27T10:19:03.268Z,18.34
2018-04-27T10:20:03.259Z,18.43
2018-04-27T10:21:03.256Z,18.56
2018-04-27T10:22:03.263Z,18.59
2018-04-27T10:23:03.259Z,18.74
2018-04-27T10:24:03.230Z,19.07
2018-04-27T10:25:03.283Z,19.24
2018-04-27T10:26:03.356Z,19.49
2018-04-27T10:27:03.274Z,19.47
2018-04-27T10:28:03.327Z,19.54
2018-04-27T10:29:03.282Z,19.45
2018-04-27T10:30:03.267Z,19.49
2018-04-27T10:31:03.408Z,19.51
2018-04-27T10:32:03.268Z,19.34
2018-04-27T10:33:03.276Z,19.29
2018-04-27T10:34:03.286Z,19.29
2018-04-27T10:35:03.282Z,19.37
2018-04-27T10:36:03.287Z,19.12
2018-04-27T10:37:03.343Z,18.88
2018-04-27T10:38:03.277Z,18.74
2018-04-27T10:39:03.289Z,18.81
2018-04-27T10:40:03.369Z,18.86
2018-04-27T10:41:03.337Z,18.70
2018-04-27T10:42:03.311Z,18.41
2018-04-27T10:43:03.369Z,18.26
2018-04-27T10:44:03.293Z,18.23
2018-04-27T10:45:03.289Z,18.07
2018-04-27T10:46:03.371Z,18.04
2018-04-27T10:47:03.474Z,18.10
2018-04-27T10:48:03.393Z,18.01
2018-04-27T10:49:03.293Z,18.22
2018-04-27T10:50:03.290Z,18.55
2018-04-27T10:51:03.347Z,18.80
2018-04-27T10:52:03.299Z,19.22
2018-04-27T10:53:03.316Z,19.64
2018-04-27T10:54:03.295Z,19.96
2018-04-27T10:55:03.362Z,20.41
2018-04-27T10:56:03.404Z,20.43
2018-04-27T10:57:03.375Z,20.31
2018-04-27T10:58:03.345Z,20.16
2018-04-27T10:59:03.360Z,20.02
2018-04-27T11:00:03.359Z,19.91
2018-04-27T11:01:03.341Z,19.71
2018-04-27T11:02:03.315Z,19.44
2018-04-27T11:03:03.315Z,19.36
2018-04-27T11:04:03.352Z,19.26
2018-04-27T11:05:03.332Z,19.11
2018-04-27T11:06:03.353Z,19.09
2018-04-27T11:07:03.376Z,18.90
2018-04-27T11:08:03.359Z,18.60
2018-04-27T11:09:03.322Z,18.62
2018-04-27T11:10:03.335Z,18.63
2018-04-27T11:11:03.670Z,18.71
2018-04-27T11:12:03.620Z,18.71
2018-04-27T11:13:03.390Z,18.45
2018-04-27T11:14:03.351Z,18.55
2018-04-27T11:15:03.323Z,18.75
2018-04-27T11:16:03.372Z,18.99
2018-04-27T11:17:03.383Z,19.40
2018-04-27T11:18:03.359Z,19.92
2018-04-27T11:19:03.375Z,20.32
2018-04-27T11:20:03.349Z,20.51
2018-04-27T11:21:03.552Z,20.58
2018-04-27T11:22:03.341Z,20.55
2018-04-27T11:23:03.369Z,20.21
2018-04-27T11:24:03.389Z,20.18
2018-04-27T11:25:03.320Z,20.03
2018-04-27T11:26:03.415Z,19.76
2018-04-27T11:27:03.340Z,19.85
2018-04-27T11:28:03.337Z,20.18
2018-04-27T11:29:03.414Z,20.56
2018-04-27T11:30:03.384Z,20.72
2018-04-27T11:31:03.401Z,20.78
2018-04-27T11:32:03.360Z,20.87
2018-04-27T11:33:03.419Z,21.29
2018-04-27T11:34:03.389Z,21.99
2018-04-27T11:35:03.429Z,22.15
2018-04-27T11:36:03.410Z,22.26
2018-04-27T11:37:03.396Z,22.13
2018-04-27T11:38:03.452Z,22.11
2018-04-27T11:39:03.448Z,22.15
2018-04-27T11:40:03.451Z,22.23
2018-04-27T11:41:03.429Z,22.43
2018-04-27T11:42:03.442Z,22.20
2018-04-27T11:43:03.479Z,21.69
2018-04-27T11:44:03.429Z,20.90
2018-04-27T11:45:03.464Z,20.25
2018-04-27T11:46:03.467Z,19.91
2018-04-27T11:47:03.519Z,19.79
2018-04-27T11:48:03.472Z,19.69
2018-04-27T11:49:03.460Z,19.91
2018-04-27T11:50:03.536Z,19.70
2018-04-27T11:51:03.515Z,19.99
2018-04-27T11:52:03.587Z,20.37
2018-04-27T11:53:03.526Z,20.50
2018-04-27T11:54:03.509Z,20.29
2018-04-27T11:55:03.465Z,20.16
2018-04-27T11:56:03.523Z,19.89
2018-04-27T11:57:03.564Z,19.92
2018-04-27T11:58:03.529Z,20.09
2018-04-27T11:59:03.503Z,20.16
2018-04-27T12:00:03.529Z,20.44
2018-04-27T12:01:03.781Z,20.67
2018-04-27T12:02:03.760Z,20.87
2018-04-27T12:03:03.535Z,20.96
2018-04-27T12:04:03.583Z,20.97
2018-04-27T12:05:03.550Z,21.21
2018-04-27T12:06:03.538Z,21.66
2018-04-27T12:07:03.541Z,22.14
2018-04-27T12:08:03.596Z,22.28
2018-04-27T12:09:03.619Z,22.38
2018-04-27T12:10:03.610Z,22.66
2018-04-27T12:11:03.572Z,22.84
2018-04-27T12:12:03.639Z,22.68
2018-04-27T12:13:03.651Z,21.96
2018-04-27T12:14:03.604Z,21.67
2018-04-27T12:15:03.676Z,21.58
2018-04-27T12:16:03.638Z,21.57
2018-04-27T12:17:03.705Z,21.69
2018-04-27T12:18:03.644Z,21.83
2018-04-27T12:19:03.866Z,22.07
2018-04-27T12:20:03.680Z,21.92
2018-04-27T12:21:03.678Z,22.06
2018-04-27T12:22:03.650Z,22.43
2018-04-27T12:23:03.677Z,22.73
2018-04-27T12:24:03.670Z,21.82
2018-04-27T12:25:03.676Z,21.43
2018-04-27T12:26:03.675Z,21.09
2018-04-27T12:27:03.945Z,20.74
2018-04-27T12:28:03.719Z,20.77
2018-04-27T12:29:03.749Z,20.80
2018-04-27T12:30:03.947Z,21.05
2018-04-27T12:31:03.767Z,21.30
2018-04-27T12:32:03.667Z,21.66
2018-04-27T12:33:03.768Z,21.85
2018-04-27T12:34:03.769Z,22.32
2018-04-27T12:35:03.774Z,22.47
2018-04-27T12:36:03.765Z,22.47
2018-04-27T12:37:03.813Z,22.66
2018-04-27T12:38:03.722Z,22.50
2018-04-27T12:39:03.726Z,22.85
2018-04-27T12:40:03.786Z,23.18
2018-04-27T12:41:03.770Z,22.87
2018-04-27T12:42:03.852Z,22.78
2018-04-27T12:43:03.814Z,22.54
2018-04-27T12:44:03.809Z,22.84
2018-04-27T12:45:03.927Z,23.32
2018-04-27T12:46:03.847Z,23.66
2018-04-27T12:47:03.770Z,23.63
2018-04-27T12:48:03.774Z,23.61
2018-04-27T12:49:04.001Z,23.66
2018-04-27T12:50:03.822Z,23.84
2018-04-27T12:52:03.820Z,24.40
2018-04-27T12:53:03.876Z,24.89
2018-04-27T12:54:03.872Z,25.08
2018-04-27T12:55:03.849Z,25.32
2018-04-27T12:56:03.846Z,25.44
2018-04-27T12:57:03.946Z,25.31
2018-04-27T12:58:04.153Z,25.28
2018-04-27T12:59:03.875Z,24.30
2018-04-27T13:00:03.896Z,24.17
2018-04-27T13:01:03.921Z,24.14
2018-04-27T13:02:04.202Z,23.69
2018-04-27T13:03:03.968Z,23.44
2018-04-27T13:04:03.925Z,23.12
2018-04-27T13:05:03.936Z,22.80
2018-04-27T13:06:03.965Z,22.45
2018-04-27T13:07:03.971Z,22.11
2018-04-27T13:08:03.994Z,21.35
2018-04-27T13:09:03.986Z,21.07
2018-04-27T13:10:03.985Z,20.81
2018-04-27T13:11:03.997Z,20.72
2018-04-27T13:12:04.028Z,20.41
2018-04-27T13:13:03.941Z,20.28
2018-04-27T13:14:04.003Z,20.02
2018-04-27T13:15:03.992Z,19.77
2018-04-27T13:16:04.179Z,20.14
2018-04-27T13:17:03.963Z,20.74
2018-04-27T13:18:03.972Z,20.97
2018-04-27T13:19:03.959Z,20.97
2018-04-27T13:20:03.994Z,20.87
2018-04-27T13:21:03.977Z,20.87
2018-04-27T13:22:04.045Z,20.77
2018-04-27T13:23:04.017Z,20.40
2018-04-27T13:24:03.976Z,20.65
2018-04-27T13:25:03.969Z,20.93
2018-04-27T13:26:04.011Z,21.92